Terminal Aerodrome Forecast
Issued by NWS

Home | Current Version | Previous Version | Text Only | Print | Product List | Glossary On
Versions: 1 2 3 4 5 6 7 8 9 10 11 12 13 14 15
077
FTUS42 TJSJ 301452 AAA
TAFJMZ
TAF AMD
TJMZ 301452Z 3015/3112 06005KT P6SM VCSH SCT025 BKN040 BKN100
      TEMPO 3015/3016 3SM -TSRA SCT015 BKN030CB
     FM301600 VRB12KT 4SM TSRA BKN025CB OVC040
     FM302200 06005KT P6SM VCSH SCT040
      AMD NOT SKED=

USA.gov is the U.S. government's official web portal to all federal, state and local government web resources and services.